Time;durP1;ratioP1;P1;durP2;ratioP2;P2;SDS_P1;SDS_P2;PMS_P1;PMS_P2;Temp;Humidity;BMP_temperature;BMP_pressure;BME280_temperature;BME280_humidity;BME280_pressure;Samples;Min_cycle;Max_cycle;Signal;HPM_P1;HPM_P2
2024/04/06 00:00:51;;;;;;;0.90;0.73;;;14.40;99.90;;;;;;4965926;29;20226;-82
2024/04/06 00:03:19;;;;;;;0.80;0.70;;;14.30;99.90;;;;;;4966592;29;20520;-82
2024/04/06 00:05:45;;;;;;;0.93;0.60;;;14.30;99.90;;;;;;4965096;29;20955;-82
2024/04/06 00:08:11;;;;;;;2.33;1.03;;;14.20;99.90;;;;;;4965324;29;20533;-82
2024/04/06 00:10:37;;;;;;;0.83;0.70;;;14.30;99.90;;;;;;4965018;29;20226;-82
2024/04/06 00:13:04;;;;;;;0.67;0.60;;;14.20;99.90;;;;;;4966476;29;20456;-82
2024/04/06 00:15:30;;;;;;;0.87;0.87;;;14.20;99.90;;;;;;4965178;29;20213;-82
2024/04/06 00:17:57;;;;;;;0.70;0.70;;;14.10;99.90;;;;;;4965812;29;20533;-82
2024/04/06 00:20:24;;;;;;;0.77;0.70;;;14.10;99.90;;;;;;4965309;29;20234;-82
2024/04/06 00:22:50;;;;;;;0.73;0.63;;;14.10;99.90;;;;;;4965538;29;20544;-82
2024/04/06 00:25:16;;;;;;;0.80;0.67;;;14.20;99.90;;;;;;4964972;29;20453;-82
2024/04/06 00:27:43;;;;;;;0.80;0.80;;;14.10;99.90;;;;;;4964127;29;20443;-82
2024/04/06 00:30:09;;;;;;;0.70;0.70;;;14.20;99.90;;;;;;4964483;29;20224;-82
2024/04/06 00:32:36;;;;;;;1.50;0.80;;;14.10;99.90;;;;;;4964764;29;20814;-82
2024/04/06 00:35:02;;;;;;;1.10;0.60;;;14.10;99.90;;;;;;4965109;29;20450;-82
2024/04/06 00:37:30;;;;;;;0.70;0.60;;;14.10;99.90;;;;;;4965234;29;20537;-82
2024/04/06 00:39:56;;;;;;;0.40;0.40;;;14.10;99.90;;;;;;4964232;29;20466;-82
2024/04/06 00:42:23;;;;;;;0.80;0.60;;;14.10;99.90;;;;;;4963855;29;20474;-82
2024/04/06 00:44:48;;;;;;;0.70;0.70;;;14.00;99.90;;;;;;4964312;29;20210;-82
2024/04/06 00:47:15;;;;;;;0.60;0.60;;;14.00;99.90;;;;;;4963576;29;20548;-82
2024/04/06 00:49:41;;;;;;;0.60;0.60;;;14.00;99.90;;;;;;4971271;29;20226;-82
2024/04/06 00:52:07;;;;;;;1.43;0.53;;;14.00;99.90;;;;;;4969303;29;20537;-82
2024/04/06 00:54:35;;;;;;;0.63;0.63;;;14.00;99.90;;;;;;4968524;29;20209;-82
2024/04/06 00:57:02;;;;;;;1.63;0.97;;;13.90;99.90;;;;;;4969177;29;20454;-82
2024/04/06 00:59:28;;;;;;;1.37;0.80;;;13.90;99.90;;;;;;4968924;28;20471;-82
2024/04/06 01:01:55;;;;;;;0.67;0.67;;;13.90;99.90;;;;;;4968242;29;20542;-82
2024/04/06 01:04:21;;;;;;;0.60;0.60;;;13.90;99.90;;;;;;4968325;29;20226;-83
2024/04/06 01:06:47;;;;;;;0.60;0.60;;;13.90;99.90;;;;;;4968016;29;20454;-82
2024/04/06 01:09:13;;;;;;;0.70;0.70;;;13.90;99.90;;;;;;4967849;29;20238;-82
2024/04/06 01:11:41;;;;;;;10.23;0.80;;;13.90;99.90;;;;;;4967469;29;20423;-82
2024/04/06 01:14:07;;;;;;;0.90;0.90;;;13.90;99.90;;;;;;4966611;29;20574;-82
2024/04/06 01:16:35;;;;;;;1.20;1.10;;;13.90;99.90;;;;;;4966698;29;20545;-82
2024/04/06 01:19:01;;;;;;;1.53;1.27;;;13.80;99.90;;;;;;4966425;29;20285;-82
2024/04/06 01:21:28;;;;;;;2.73;1.23;;;13.80;99.90;;;;;;4966129;29;20486;-82
2024/04/06 01:23:53;;;;;;;0.93;0.70;;;13.80;99.90;;;;;;4966807;29;20217;-82
2024/04/06 01:26:22;;;;;;;0.97;0.87;;;13.80;99.90;;;;;;4965731;29;20529;-82
2024/04/06 01:28:48;;;;;;;0.70;0.70;;;13.80;99.90;;;;;;4965403;29;20602;-82
2024/04/06 01:31:15;;;;;;;0.70;0.70;;;13.80;99.90;;;;;;4965844;29;20457;-82
2024/04/06 01:33:41;;;;;;;0.67;0.67;;;13.80;99.90;;;;;;4964994;29;20437;-82
2024/04/06 01:36:08;;;;;;;1.20;0.77;;;13.70;99.90;;;;;;4965546;29;20505;-82
2024/04/06 01:38:34;;;;;;;1.23;0.90;;;13.80;99.90;;;;;;4964265;29;20222;-82
2024/04/06 01:41:00;;;;;;;0.70;0.70;;;13.80;99.90;;;;;;4964811;29;20478;-82
2024/04/06 01:43:27;;;;;;;0.80;0.60;;;13.80;99.90;;;;;;4964137;29;20211;-82
2024/04/06 01:45:54;;;;;;;0.80;0.80;;;13.70;99.90;;;;;;4963884;29;20450;-82
2024/04/06 01:48:20;;;;;;;0.70;0.70;;;13.80;99.90;;;;;;4963392;29;20474;-82
2024/04/06 01:50:47;;;;;;;0.60;0.60;;;13.70;99.90;;;;;;4963826;29;20462;-82
2024/04/06 01:53:12;;;;;;;0.67;0.67;;;13.80;99.90;;;;;;4964115;29;20212;-82
2024/04/06 01:55:39;;;;;;;3.30;0.70;;;13.70;99.90;;;;;;4964576;29;20525;-82
2024/04/06 01:58:05;;;;;;;1.13;0.90;;;13.70;99.90;;;;;;4962934;29;20199;-82
2024/04/06 02:00:33;;;;;;;0.70;0.70;;;13.70;99.90;;;;;;4963552;29;21059;-82
2024/04/06 02:03:00;;;;;;;0.97;0.63;;;13.60;99.90;;;;;;4962830;29;20482;-82
2024/04/06 02:05:27;;;;;;;0.90;0.90;;;13.50;99.90;;;;;;4963697;29;20462;-82
2024/04/06 02:07:53;;;;;;;1.23;0.80;;;13.50;99.90;;;;;;4963217;29;20473;-81
2024/04/06 02:10:20;;;;;;;3.70;0.87;;;13.50;99.90;;;;;;4962795;29;20971;-82
2024/04/06 02:12:47;;;;;;;0.90;0.90;;;13.50;99.90;;;;;;4961618;28;20209;-82
2024/04/06 02:15:13;;;;;;;1.00;0.90;;;13.50;99.90;;;;;;4962648;29;20445;-82
2024/04/06 02:17:41;;;;;;;1.30;0.70;;;13.50;99.90;;;;;;4962744;29;20477;-82
2024/04/06 02:20:09;;;;;;;0.87;0.80;;;13.50;99.90;;;;;;4962104;29;20477;-82
2024/04/06 02:22:35;;;;;;;2.20;0.97;;;13.50;99.90;;;;;;4962327;29;20490;-82
2024/04/06 02:25:03;;;;;;;0.97;0.60;;;13.40;99.90;;;;;;4961730;29;20492;-82
2024/04/06 02:27:28;;;;;;;0.60;0.60;;;13.40;99.90;;;;;;4962411;29;20447;-82
2024/04/06 02:29:55;;;;;;;2.97;1.17;;;13.40;99.90;;;;;;4961374;29;20541;-82
2024/04/06 02:32:21;;;;;;;0.80;0.67;;;13.40;99.90;;;;;;4961861;29;20209;-82
2024/04/06 02:34:49;;;;;;;1.60;0.60;;;13.50;99.90;;;;;;4961347;29;20438;-82
2024/04/06 02:37:15;;;;;;;0.60;0.60;;;13.40;99.90;;;;;;4961647;29;20213;-82
2024/04/06 02:39:41;;;;;;;0.77;0.60;;;13.50;99.90;;;;;;4960904;29;20459;-82
2024/04/06 02:42:07;;;;;;;1.10;0.90;;;13.50;99.90;;;;;;4970270;29;20215;-82
2024/04/06 02:44:34;;;;;;;0.87;0.70;;;13.60;99.90;;;;;;4967969;29;21006;-82
2024/04/06 02:47:00;;;;;;;0.70;0.70;;;13.60;99.90;;;;;;4967710;29;20323;-82
2024/04/06 02:49:27;;;;;;;0.90;0.80;;;13.70;99.90;;;;;;4967370;29;20470;-82
2024/04/06 02:51:54;;;;;;;1.53;0.90;;;13.70;99.90;;;;;;4966696;29;20442;-82
2024/04/06 02:54:21;;;;;;;3.70;0.90;;;13.70;99.90;;;;;;4966149;29;20800;-82
2024/04/06 02:56:47;;;;;;;2.23;1.00;;;13.70;99.90;;;;;;4965789;29;20457;-82
2024/04/06 02:59:13;;;;;;;1.07;0.70;;;13.70;99.90;;;;;;4965313;29;20529;-82
2024/04/06 03:01:39;;;;;;;5.03;1.00;;;13.60;99.90;;;;;;4965834;29;20222;-82
2024/04/06 03:04:06;;;;;;;0.97;0.83;;;13.60;99.90;;;;;;4964823;29;20822;-82
2024/04/06 03:06:32;;;;;;;1.43;0.83;;;13.50;99.90;;;;;;4964342;29;20668;-82
2024/04/06 03:09:00;;;;;;;0.93;0.93;;;13.50;99.90;;;;;;4964585;29;20505;-82
2024/04/06 03:11:26;;;;;;;1.33;1.10;;;13.50;99.90;;;;;;4964369;29;20210;-82
2024/04/06 03:13:53;;;;;;;0.60;0.60;;;13.40;99.90;;;;;;4963746;29;20821;-82
2024/04/06 03:16:20;;;;;;;3.30;1.20;;;13.40;99.90;;;;;;4963708;29;20211;-82
2024/04/06 03:18:47;;;;;;;1.50;0.90;;;13.30;99.90;;;;;;4964383;29;21030;-82
2024/04/06 03:21:13;;;;;;;1.17;1.10;;;13.30;99.90;;;;;;4963751;29;20449;-82
2024/04/06 03:23:40;;;;;;;1.47;0.77;;;13.30;99.90;;;;;;4964371;28;21039;-82
2024/04/06 03:26:07;;;;;;;0.90;0.90;;;13.20;99.90;;;;;;4972263;29;20319;-82
2024/04/06 03:28:33;;;;;;;0.70;0.70;;;13.20;99.90;;;;;;4970575;29;20430;-82
2024/04/06 03:31:00;;;;;;;1.57;1.10;;;13.20;99.90;;;;;;4968653;29;20454;-82
2024/04/06 03:33:27;;;;;;;0.87;0.80;;;13.10;99.90;;;;;;4971272;29;20446;-82
2024/04/06 03:35:52;;;;;;;1.00;0.93;;;13.00;99.90;;;;;;4970437;29;20962;-82
2024/04/06 03:38:20;;;;;;;1.20;1.00;;;13.00;99.90;;;;;;4970000;29;20537;-83
2024/04/06 03:40:45;;;;;;;0.83;0.83;;;12.90;99.90;;;;;;4968790;29;20230;-83
2024/04/06 03:43:14;;;;;;;1.77;0.90;;;12.80;99.90;;;;;;4968921;29;20983;-82
2024/04/06 03:45:39;;;;;;;1.17;0.80;;;12.70;99.90;;;;;;4968961;29;20257;-82
2024/04/06 03:48:07;;;;;;;1.67;0.80;;;12.70;99.90;;;;;;4968257;29;21048;-82
2024/04/06 03:50:33;;;;;;;1.30;1.20;;;12.60;99.90;;;;;;4968841;29;20227;-82
2024/04/06 03:53:00;;;;;;;1.67;0.90;;;12.60;99.90;;;;;;4968670;29;20485;-82
2024/04/06 03:55:26;;;;;;;0.73;0.70;;;12.60;99.90;;;;;;4968305;29;20262;-82
2024/04/06 03:57:53;;;;;;;5.17;0.80;;;12.60;99.90;;;;;;4967985;29;20454;-82
2024/04/06 04:00:21;;;;;;;2.47;1.20;;;12.50;99.90;;;;;;4968024;29;20253;-83
2024/04/06 04:02:47;;;;;;;2.50;1.07;;;12.50;99.90;;;;;;4967967;29;20488;-82
2024/04/06 04:05:13;;;;;;;0.60;0.57;;;12.50;99.90;;;;;;4967370;29;20882;-82
2024/04/06 04:07:39;;;;;;;0.90;0.90;;;12.50;99.90;;;;;;4967233;29;20207;-82
2024/04/06 04:10:07;;;;;;;0.67;0.67;;;12.50;99.90;;;;;;4966184;29;20549;-82
2024/04/06 04:12:33;;;;;;;1.77;0.97;;;12.50;99.90;;;;;;4966962;29;20202;-82
2024/04/06 04:15:00;;;;;;;1.00;0.73;;;12.50;99.90;;;;;;4967379;29;20457;-82
2024/04/06 04:17:28;;;;;;;0.80;0.73;;;12.50;99.90;;;;;;4967726;29;20447;-85
2024/04/06 04:19:55;;;;;;;0.70;0.70;;;12.50;99.90;;;;;;4966665;29;20477;-82
2024/04/06 04:22:20;;;;;;;1.00;0.70;;;12.50;99.90;;;;;;4965373;29;20853;-83
2024/04/06 04:24:47;;;;;;;0.87;0.60;;;12.50;99.90;;;;;;4965624;29;20522;-82
2024/04/06 04:27:13;;;;;;;2.30;1.07;;;12.50;99.90;;;;;;4966531;29;20293;-82
2024/04/06 04:29:39;;;;;;;1.70;0.90;;;12.40;99.90;;;;;;4965951;29;20857;-82
2024/04/06 04:32:05;;;;;;;0.80;0.60;;;12.40;99.90;;;;;;4969674;29;20207;-82
2024/04/06 04:34:33;;;;;;;0.73;0.73;;;12.40;99.90;;;;;;4968157;28;20513;-82
2024/04/06 04:36:59;;;;;;;0.90;0.90;;;12.40;99.90;;;;;;4967010;29;20469;-82
2024/04/06 04:39:26;;;;;;;1.07;0.97;;;12.30;99.90;;;;;;4967488;29;20837;-82
2024/04/06 04:41:52;;;;;;;0.90;0.80;;;12.30;99.90;;;;;;4966925;29;20223;-82
2024/04/06 04:44:19;;;;;;;1.93;0.80;;;12.30;99.90;;;;;;4966910;29;20514;-82
2024/04/06 04:46:45;;;;;;;2.50;0.93;;;12.30;99.90;;;;;;4966918;29;20490;-82
2024/04/06 04:49:12;;;;;;;0.80;0.80;;;12.30;99.90;;;;;;4967052;29;20549;-83
2024/04/06 04:51:39;;;;;;;1.00;0.90;;;12.20;99.90;;;;;;4967893;29;20692;-83
2024/04/06 04:54:06;;;;;;;0.90;0.80;;;12.30;99.90;;;;;;4968719;29;20474;-83
2024/04/06 04:56:32;;;;;;;1.00;0.53;;;12.20;99.90;;;;;;4968595;29;20824;-83
2024/04/06 04:58:59;;;;;;;1.00;0.70;;;12.10;99.90;;;;;;4968601;29;20549;-82
2024/04/06 05:01:24;;;;;;;0.90;0.80;;;12.10;99.90;;;;;;4968333;29;20286;-82
2024/04/06 05:03:51;;;;;;;0.60;0.60;;;12.10;99.90;;;;;;4968104;29;20524;-83
2024/04/06 05:06:17;;;;;;;0.80;0.70;;;12.10;99.90;;;;;;4967608;29;20234;-82
2024/04/06 05:08:45;;;;;;;0.80;0.80;;;12.10;99.90;;;;;;4968098;29;20471;-82
2024/04/06 05:11:12;;;;;;;0.93;0.93;;;12.10;99.90;;;;;;4967074;29;20664;-82
2024/04/06 05:13:38;;;;;;;1.00;0.70;;;12.10;99.90;;;;;;4967442;29;20450;-82
2024/04/06 05:16:05;;;;;;;1.50;1.00;;;12.10;99.90;;;;;;4967269;29;20461;-82
2024/04/06 05:18:31;;;;;;;1.80;0.90;;;12.10;99.90;;;;;;4966141;29;20210;-82
2024/04/06 05:21:00;;;;;;;2.00;1.10;;;12.20;99.90;;;;;;4965523;29;20522;-82
2024/04/06 05:23:27;;;;;;;0.70;0.60;;;12.20;99.90;;;;;;4965744;29;20222;-81
2024/04/06 05:25:56;;;;;;;1.37;0.80;;;12.20;99.90;;;;;;4966336;29;20435;-82
2024/04/06 05:28:23;;;;;;;1.70;1.00;;;12.30;99.90;;;;;;4964606;29;20443;-82
2024/04/06 05:30:50;;;;;;;1.10;0.80;;;12.40;99.90;;;;;;4966295;29;20466;-82
2024/04/06 05:33:18;;;;;;;0.67;0.67;;;12.40;99.90;;;;;;4965670;29;20450;-82
2024/04/06 05:35:47;;;;;;;0.90;0.90;;;12.40;99.90;;;;;;4965244;29;20987;-82
2024/04/06 05:38:13;;;;;;;2.43;0.90;;;12.50;99.90;;;;;;4965349;29;20450;-82
2024/04/06 05:40:40;;;;;;;1.30;0.80;;;12.70;99.90;;;;;;4964490;29;20462;-82
2024/04/06 05:43:07;;;;;;;0.60;0.60;;;12.60;99.90;;;;;;4963742;29;20484;-82
2024/04/06 05:45:34;;;;;;;1.07;0.87;;;12.70;99.90;;;;;;4963700;29;20466;-82
2024/04/06 05:48:03;;;;;;;1.30;0.90;;;12.70;99.90;;;;;;4963397;28;20496;-82
2024/04/06 05:50:30;;;;;;;2.13;1.10;;;12.80;99.90;;;;;;4963825;29;20915;-82
2024/04/06 05:52:55;;;;;;;1.00;0.90;;;12.90;99.90;;;;;;4963444;29;20450;-82
2024/04/06 05:55:22;;;;;;;2.00;0.90;;;12.90;99.90;;;;;;4963631;29;20451;-82
2024/04/06 05:57:48;;;;;;;1.13;0.77;;;13.00;99.90;;;;;;4963624;29;20210;-82
2024/04/06 06:00:17;;;;;;;4.30;0.80;;;13.10;99.90;;;;;;4963520;29;20497;-82
2024/04/06 06:02:42;;;;;;;1.70;0.70;;;13.10;99.90;;;;;;4963259;29;20249;-82
2024/04/06 06:05:09;;;;;;;1.47;0.80;;;13.20;99.90;;;;;;4963103;29;20446;-82
2024/04/06 06:07:36;;;;;;;0.70;0.70;;;13.40;99.90;;;;;;4963536;29;20199;-82
2024/04/06 06:10:03;;;;;;;1.30;0.80;;;13.40;99.90;;;;;;4963509;29;20505;-82
2024/04/06 06:12:29;;;;;;;1.77;1.00;;;13.40;99.90;;;;;;4962771;29;20972;-82
2024/04/06 06:14:56;;;;;;;0.70;0.70;;;13.50;99.90;;;;;;4963203;29;20450;-82
2024/04/06 06:17:24;;;;;;;0.70;0.70;;;13.70;99.90;;;;;;4962902;29;20205;-82
2024/04/06 06:19:50;;;;;;;0.77;0.70;;;13.80;99.90;;;;;;4961771;29;20461;-82
2024/04/06 06:22:16;;;;;;;1.20;1.20;;;13.90;99.90;;;;;;4965969;29;20482;-81
2024/04/06 06:24:42;;;;;;;3.23;1.27;;;14.10;99.90;;;;;;4966453;29;20212;-82
2024/04/06 06:27:09;;;;;;;1.00;0.90;;;14.40;99.90;;;;;;4965967;29;20533;-82
2024/04/06 06:29:35;;;;;;;0.73;0.73;;;14.80;99.90;;;;;;4965235;29;20237;-82
2024/04/06 06:32:02;;;;;;;1.37;0.90;;;15.50;99.90;;;;;;4964773;29;20477;-82
2024/04/06 06:34:30;;;;;;;0.80;0.80;;;16.10;99.90;;;;;;4965551;29;20202;-82
2024/04/06 06:36:57;;;;;;;1.10;0.80;;;16.60;99.90;;;;;;4965610;29;20925;-82
2024/04/06 06:39:23;;;;;;;1.13;1.00;;;17.00;99.90;;;;;;4963973;29;20470;-82
2024/04/06 06:41:51;;;;;;;1.10;0.73;;;17.30;99.90;;;;;;4963253;29;20456;-82
2024/04/06 06:44:17;;;;;;;1.13;1.00;;;17.40;99.90;;;;;;4963414;29;20191;-84
2024/04/06 06:46:44;;;;;;;0.80;0.77;;;17.60;99.90;;;;;;4960765;29;20474;-82
2024/04/06 06:49:10;;;;;;;1.40;0.77;;;17.80;99.90;;;;;;4962642;29;20470;-84
2024/04/06 06:51:38;;;;;;;0.90;0.90;;;17.80;99.90;;;;;;4961179;29;20440;-82
2024/04/06 06:54:04;;;;;;;2.63;0.90;;;17.60;99.90;;;;;;4962038;29;20423;-82
2024/04/06 06:56:31;;;;;;;1.03;0.93;;;17.50;99.90;;;;;;4963146;29;20446;-82
2024/04/06 06:58:57;;;;;;;0.90;0.90;;;17.30;99.90;;;;;;4963996;28;20470;-82
2024/04/06 07:01:24;;;;;;;1.07;1.03;;;17.10;99.90;;;;;;4965891;29;20948;-82
2024/04/06 07:03:51;;;;;;;2.10;1.50;;;17.00;99.90;;;;;;4965722;29;20496;-82
2024/04/06 07:06:18;;;;;;;1.53;1.13;;;16.90;99.90;;;;;;4967308;29;20474;-81
2024/04/06 07:08:45;;;;;;;1.00;0.90;;;16.90;99.90;;;;;;4972275;29;20463;-82
2024/04/06 07:11:12;;;;;;;1.10;1.03;;;16.90;99.90;;;;;;4966887;29;20476;-82
2024/04/06 07:13:38;;;;;;;2.00;1.00;;;17.00;99.90;;;;;;4966941;29;20453;-82
2024/04/06 07:16:06;;;;;;;1.23;1.20;;;17.30;99.90;;;;;;4966433;29;20513;-82
2024/04/06 07:18:32;;;;;;;1.17;1.03;;;17.70;99.90;;;;;;4966259;29;20243;-84
2024/04/06 07:21:00;;;;;;;0.90;0.90;;;18.20;99.90;;;;;;4966188;29;20455;-82
2024/04/06 07:23:26;;;;;;;1.80;0.97;;;19.00;99.90;;;;;;4966373;29;20238;-82
2024/04/06 07:25:54;;;;;;;4.00;0.80;;;20.00;99.90;;;;;;4966570;29;20995;-82
2024/04/06 07:28:20;;;;;;;1.73;0.90;;;20.90;99.90;;;;;;4965328;29;20825;-82
2024/04/06 07:30:47;;;;;;;0.80;0.80;;;21.80;99.90;;;;;;4966057;29;20442;-82
2024/04/06 07:33:13;;;;;;;0.67;0.67;;;22.60;99.90;;;;;;4964404;29;20217;-83
2024/04/06 07:35:40;;;;;;;0.60;0.60;;;23.20;99.90;;;;;;4964094;29;20489;-83
2024/04/06 07:38:06;;;;;;;0.80;0.80;;;23.50;99.90;;;;;;4963738;29;20214;-83
2024/04/06 07:40:33;;;;;;;0.60;0.60;;;23.70;99.90;;;;;;4963804;29;20273;-83
2024/04/06 07:43:01;;;;;;;0.63;0.63;;;23.70;99.90;;;;;;4964192;29;20592;-85
2024/04/06 07:45:28;;;;;;;0.63;0.63;;;23.90;99.90;;;;;;4964136;29;20206;-83
2024/04/06 07:47:54;;;;;;;0.60;0.60;;;23.90;99.90;;;;;;4963707;29;20244;-83
2024/04/06 07:50:20;;;;;;;0.63;0.60;;;24.10;99.90;;;;;;4963831;29;20225;-83
2024/04/06 07:52:46;;;;;;;2.05;1.23;;;24.10;99.90;;;;;;4964559;29;20206;-84
2024/04/06 07:55:13;;;;;;;0.95;0.80;;;24.10;99.90;;;;;;4963529;29;20212;-83
2024/04/06 07:57:41;;;;;;;0.80;0.80;;;24.10;99.90;;;;;;4964045;29;20198;-83
2024/04/06 08:00:10;;;;;;;0.70;0.70;;;23.90;99.90;;;;;;4964720;29;20236;-84
2024/04/06 08:02:36;;;;;;;1.25;0.65;;;23.80;99.90;;;;;;4964863;29;20237;-83
2024/04/06 08:05:02;;;;;;;2.53;0.70;;;23.30;98.70;;;;;;4964216;29;20325;-82
2024/04/06 08:07:29;;;;;;;0.70;0.70;;;22.60;98.60;;;;;;4964532;29;20194;-83
2024/04/06 08:09:58;;;;;;;0.60;0.60;;;22.30;99.40;;;;;;4961993;28;20222;-85
2024/04/06 08:12:24;;;;;;;1.17;0.70;;;22.10;99.50;;;;;;4969354;29;20253;-85
2024/04/06 08:14:51;;;;;;;0.82;0.60;;;21.80;99.70;;;;;;4964643;29;20198;-85
2024/04/06 08:17:18;;;;;;;0.75;0.57;;;21.70;99.60;;;;;;4964619;29;20254;-85
2024/04/06 08:19:45;;;;;;;0.80;0.80;;;21.70;99.90;;;;;;4964654;29;20230;-85
2024/04/06 08:22:11;;;;;;;1.75;0.70;;;21.60;99.30;;;;;;4962684;29;20233;-84
2024/04/06 08:24:38;;;;;;;1.70;0.57;;;21.60;99.70;;;;;;4964300;29;20229;-85
2024/04/06 08:27:04;;;;;;;0.40;0.40;;;21.60;99.90;;;;;;4964719;29;20210;-83
2024/04/06 08:29:31;;;;;;;0.60;0.60;;;21.80;99.90;;;;;;4964671;29;20232;-85
2024/04/06 08:31:56;;;;;;;0.67;0.60;;;21.80;99.30;;;;;;4964863;29;20214;-85
2024/04/06 08:34:25;;;;;;;0.60;0.53;;;21.70;99.60;;;;;;4965011;29;20289;-85
2024/04/06 08:36:50;;;;;;;0.60;0.57;;;21.80;99.50;;;;;;4964641;29;20206;-85
2024/04/06 08:39:17;;;;;;;0.77;0.70;;;22.00;99.50;;;;;;4963545;29;20222;-85
2024/04/06 08:41:43;;;;;;;0.70;0.70;;;22.00;99.20;;;;;;4963433;29;20214;-85
2024/04/06 08:44:12;;;;;;;0.60;0.60;;;21.90;98.70;;;;;;4963452;29;20225;-85
2024/04/06 08:46:40;;;;;;;0.70;0.70;;;21.80;98.80;;;;;;4963145;29;20240;-85
2024/04/06 08:49:08;;;;;;;0.60;0.60;;;21.90;99.20;;;;;;4963283;29;20667;-85
2024/04/06 08:51:39;;;;;;;0.70;0.60;;;22.00;98.30;;;;;;4963899;29;20210;-85
2024/04/06 08:54:05;;;;;;;1.13;0.80;;;22.10;97.80;;;;;;4962839;29;20182;-85
2024/04/06 08:56:31;;;;;;;1.07;0.70;;;22.00;97.70;;;;;;4962315;29;20209;-85
2024/04/06 08:58:59;;;;;;;0.67;0.60;;;22.30;97.80;;;;;;4959952;29;20217;-85
2024/04/06 09:01:25;;;;;;;0.68;0.68;;;22.50;96.70;;;;;;4961852;29;20202;-85
2024/04/06 09:03:52;;;;;;;0.52;0.52;;;23.00;97.00;;;;;;4961631;29;20218;-84
2024/04/06 09:06:18;;;;;;;0.60;0.60;;;23.60;96.00;;;;;;4961721;29;20206;-84
2024/04/06 09:08:46;;;;;;;0.77;0.68;;;24.90;95.60;;;;;;4960819;29;20221;-84
2024/04/06 09:11:12;;;;;;;0.50;0.50;;;25.80;92.70;;;;;;4961488;29;20206;-84
2024/04/06 09:13:39;;;;;;;0.50;0.50;;;26.80;90.20;;;;;;4961846;29;20568;-83
2024/04/06 09:16:07;;;;;;;0.70;0.55;;;27.10;89.00;;;;;;4961123;29;20217;-82
2024/04/06 09:18:33;;;;;;;1.67;0.55;;;27.10;86.00;;;;;;4960741;29;20652;-84
2024/04/06 09:20:59;;;;;;;1.30;0.63;;;27.10;83.30;;;;;;4959494;28;20210;-83
2024/04/06 09:23:26;;;;;;;0.60;0.55;;;26.90;84.70;;;;;;4961835;29;20222;-84
2024/04/06 09:25:58;;;;;;;0.73;0.70;;;27.00;84.00;;;;;;4961884;29;20207;-84
2024/04/06 09:28:25;;;;;;;0.57;0.57;;;27.10;82.20;;;;;;4959603;29;20199;-84
2024/04/06 09:30:55;;;;;;;1.38;0.70;;;27.50;80.10;;;;;;4959533;29;20196;-84
2024/04/06 09:33:24;;;;;;;0.93;0.70;;;28.10;77.90;;;;;;4960654;29;20297;-81
2024/04/06 09:35:50;;;;;;;0.68;0.68;;;28.80;75.70;;;;;;4960058;29;20265;-84
2024/04/06 09:38:17;;;;;;;0.82;0.82;;;29.50;74.00;;;;;;4959792;29;20219;-84
2024/04/06 09:40:44;;;;;;;0.60;0.60;;;30.30;71.40;;;;;;4958944;29;20206;-83
2024/04/06 09:43:13;;;;;;;0.73;0.60;;;30.80;68.20;;;;;;4960309;29;20236;-84
2024/04/06 09:45:39;;;;;;;0.93;0.82;;;31.00;65.00;;;;;;4959424;29;20206;-84
2024/04/06 09:48:09;;;;;;;0.93;0.70;;;30.60;62.70;;;;;;4959490;29;20326;-84
2024/04/06 09:50:36;;;;;;;1.52;0.77;;;30.60;62.20;;;;;;4959357;29;20244;-83
2024/04/06 09:53:03;;;;;;;0.77;0.50;;;31.00;63.50;;;;;;4959515;29;20201;-84
2024/04/06 09:55:31;;;;;;;0.80;0.80;;;31.70;59.00;;;;;;4959826;29;20194;-84
2024/04/06 09:57:58;;;;;;;0.52;0.50;;;32.10;55.50;;;;;;4958314;29;20194;-88
2024/04/06 10:00:27;;;;;;;0.50;0.50;;;32.30;56.70;;;;;;4958685;29;20228;-87
2024/04/06 10:02:55;;;;;;;0.63;0.63;;;32.50;54.30;;;;;;4958223;29;20217;-87
2024/04/06 10:05:20;;;;;;;2.78;0.80;;;32.10;53.70;;;;;;4965689;29;20294;-84
2024/04/06 10:07:49;;;;;;;0.60;0.60;;;31.40;51.80;;;;;;4961210;29;20620;-87
2024/04/06 10:10:15;;;;;;;0.60;0.60;;;30.40;53.40;;;;;;4960067;29;20219;-88
2024/04/06 10:12:43;;;;;;;0.50;0.50;;;30.10;52.10;;;;;;4960050;29;20255;-88
2024/04/06 10:15:13;;;;;;;0.80;0.60;;;29.90;51.40;;;;;;4960582;29;20208;-88
2024/04/06 10:17:46;;;;;;;1.60;0.70;;;29.70;52.80;;;;;;4960736;29;20200;-88
2024/04/06 10:20:13;;;;;;;0.60;0.60;;;29.30;53.10;;;;;;4960523;29;20226;-88
2024/04/06 10:22:50;;;;;;;0.75;0.75;;;29.20;53.50;;;;;;4961203;29;20206;-88
2024/04/06 10:25:17;;;;;;;0.85;0.70;;;29.40;55.30;;;;;;4960636;29;20248;-89
2024/04/06 10:27:44;;;;;;;1.35;0.60;;;29.50;54.30;;;;;;4960469;29;20291;-89
2024/04/06 10:30:10;;;;;;;0.75;0.75;;;30.00;54.60;;;;;;4959911;29;20222;-89
2024/04/06 10:32:37;;;;;;;0.60;0.60;;;30.30;52.90;;;;;;4959132;28;20210;-89
2024/04/06 10:35:05;;;;;;;1.25;0.77;;;30.40;52.20;;;;;;4959340;29;20576;-89
2024/04/06 10:37:31;;;;;;;0.60;0.60;;;30.40;51.90;;;;;;4959817;29;20199;-89
2024/04/06 10:39:57;;;;;;;0.60;0.60;;;30.90;52.10;;;;;;4959033;29;20231;-89
2024/04/06 10:42:27;;;;;;;0.93;0.60;;;31.10;51.00;;;;;;4958654;29;20291;-89
2024/04/06 10:44:53;;;;;;;0.60;0.60;;;31.60;49.80;;;;;;4959833;29;20222;-88
2024/04/06 10:47:20;;;;;;;0.65;0.65;;;31.90;49.90;;;;;;4958877;29;20308;-89
2024/04/06 10:49:50;;;;;;;1.20;0.50;;;32.50;49.50;;;;;;4959446;29;20705;-89
2024/04/06 10:52:19;;;;;;;0.60;0.60;;;33.10;47.70;;;;;;4959260;29;20186;-89
2024/04/06 10:54:46;;;;;;;0.75;0.57;;;33.80;46.40;;;;;;4960221;29;20253;-89
2024/04/06 10:57:13;;;;;;;1.67;0.70;;;34.50;45.60;;;;;;4960479;29;20214;-88
2024/04/06 10:59:39;;;;;;;0.50;0.50;;;34.60;43.60;;;;;;4959643;29;20232;-88
2024/04/06 11:02:07;;;;;;;0.65;0.65;;;34.60;44.30;;;;;;4959282;29;20241;-87
2024/04/06 11:04:37;;;;;;;0.55;0.55;;;34.50;42.90;;;;;;4959290;29;20645;-88
2024/04/06 11:07:04;;;;;;;0.70;0.63;;;34.00;43.20;;;;;;4959984;29;20189;-89
2024/04/06 11:09:32;;;;;;;0.63;0.63;;;33.10;43.30;;;;;;4959253;29;20228;-88
2024/04/06 11:11:59;;;;;;;0.60;0.60;;;31.90;45.20;;;;;;4960344;29;20762;-89
2024/04/06 11:14:25;;;;;;;0.90;0.50;;;30.80;44.70;;;;;;4961269;29;20693;-89
2024/04/06 11:16:53;;;;;;;0.50;0.50;;;29.70;46.40;;;;;;4962481;29;20205;-89
2024/04/06 11:19:20;;;;;;;1.95;0.55;;;29.00;47.00;;;;;;4961205;29;20222;-88
2024/04/06 11:21:47;;;;;;;0.70;0.70;;;28.50;48.30;;;;;;4965716;29;20261;-89
2024/04/06 11:24:14;;;;;;;0.60;0.60;;;28.00;48.50;;;;;;4972693;29;20235;-88
2024/04/06 11:26:42;;;;;;;0.50;0.50;;;27.70;48.20;;;;;;4975861;29;20200;-89
2024/04/06 11:29:10;;;;;;;0.50;0.50;;;27.70;51.60;;;;;;4972464;29;20250;-89
2024/04/06 11:31:37;;;;;;;0.50;0.50;;;27.60;50.70;;;;;;4970047;29;20203;-88
2024/04/06 11:34:03;;;;;;;0.50;0.50;;;27.40;49.10;;;;;;4968949;29;20741;-88
2024/04/06 11:36:30;;;;;;;0.50;0.50;;;27.30;48.30;;;;;;4973161;29;20186;-89
2024/04/06 11:38:56;;;;;;;0.50;0.50;;;27.20;49.50;;;;;;4972836;29;20217;-89
2024/04/06 11:41:23;;;;;;;0.52;0.50;;;27.20;48.90;;;;;;4963555;29;20226;-89
2024/04/06 11:43:50;;;;;;;0.40;0.40;;;27.00;49.30;;;;;;4961775;28;20236;-89
2024/04/06 11:46:16;;;;;;;0.40;0.40;;;26.80;48.20;;;;;;4964517;29;20210;-89
2024/04/06 11:48:42;;;;;;;0.52;0.50;;;26.70;49.40;;;;;;4965842;29;20229;-88
2024/04/06 11:51:09;;;;;;;0.70;0.50;;;26.70;49.70;;;;;;4964356;29;20723;-89
2024/04/06 11:53:35;;;;;;;0.50;0.50;;;26.50;48.50;;;;;;4964933;29;20293;-89
2024/04/06 11:56:02;;;;;;;0.50;0.50;;;26.30;48.10;;;;;;4966265;29;20198;-89
2024/04/06 11:58:28;;;;;;;0.50;0.50;;;26.20;47.70;;;;;;4970518;29;20208;-90
2024/04/06 12:00:56;;;;;;;0.50;0.50;;;26.20;48.30;;;;;;4964641;29;20293;-88
2024/04/06 12:03:22;;;;;;;0.50;0.50;;;26.20;50.90;;;;;;4966298;29;20222;-89
2024/04/06 12:05:49;;;;;;;0.57;0.57;;;26.20;48.30;;;;;;4969020;29;20301;-89
2024/04/06 12:08:16;;;;;;;0.50;0.50;;;26.20;49.50;;;;;;4964350;29;20293;-83
2024/04/06 12:10:43;;;;;;;0.50;0.50;;;26.10;48.00;;;;;;4965670;29;20210;-85
2024/04/06 12:13:08;;;;;;;1.00;0.75;;;26.00;47.60;;;;;;4961251;29;20583;-86
2024/04/06 12:15:40;;;;;;;0.60;0.60;;;26.00;45.80;;;;;;4963436;29;20289;-84
2024/04/06 12:18:08;;;;;;;1.35;0.60;;;25.90;47.30;;;;;;4964390;29;20668;-85
2024/04/06 12:20:35;;;;;;;0.63;0.52;;;25.90;48.20;;;;;;4963565;29;20226;-85
2024/04/06 12:23:01;;;;;;;0.50;0.50;;;25.70;45.10;;;;;;4964934;29;20221;-85
2024/04/06 12:25:28;;;;;;;0.52;0.52;;;25.60;45.20;;;;;;4964007;29;20206;-85
2024/04/06 12:27:54;;;;;;;0.70;0.50;;;25.50;45.50;;;;;;4964829;29;20206;-85
2024/04/06 12:30:21;;;;;;;0.77;0.40;;;25.50;45.00;;;;;;4965155;29;20240;-85
2024/04/06 12:32:46;;;;;;;0.68;0.50;;;25.40;47.80;;;;;;4964563;29;20217;-85
2024/04/06 12:35:15;;;;;;;1.25;0.63;;;25.30;49.00;;;;;;4965560;29;20281;-85
2024/04/06 12:37:43;;;;;;;0.45;0.45;;;25.30;49.30;;;;;;4966892;29;20293;-85
2024/04/06 12:40:11;;;;;;;0.40;0.40;;;25.30;51.10;;;;;;4962704;29;20226;-85
2024/04/06 12:42:37;;;;;;;0.50;0.50;;;25.30;53.20;;;;;;4964859;29;20555;-85
2024/04/06 12:45:05;;;;;;;0.50;0.50;;;25.20;51.60;;;;;;4965212;29;20232;-85